sensor_id;sensor_type;location;lat;lon;timestamp;P1;durP1;ratioP1;P2;durP2;ratioP2
54428;SDS011;40337;52.978;6.310;2023-12-20T00:00:25;9.65;;;2.20;;
54428;SDS011;40337;52.978;6.310;2023-12-20T00:02:50;10.70;;;2.50;;
54428;SDS011;40337;52.978;6.310;2023-12-20T00:05:16;11.95;;;2.70;;
54428;SDS011;40337;52.978;6.310;2023-12-20T00:07:42;10.60;;;2.88;;
54428;SDS011;40337;52.978;6.310;2023-12-20T00:10:08;11.43;;;2.75;;
54428;SDS011;40337;52.978;6.310;2023-12-20T00:12:34;11.25;;;2.90;;
54428;SDS011;40337;52.978;6.310;2023-12-20T00:15:00;11.55;;;3.08;;
54428;SDS011;40337;52.978;6.310;2023-12-20T00:17:25;11.63;;;3.03;;
54428;SDS011;40337;52.978;6.310;2023-12-20T00:19:51;10.90;;;2.38;;
54428;SDS011;40337;52.978;6.310;2023-12-20T00:22:17;15.13;;;3.13;;
54428;SDS011;40337;52.978;6.310;2023-12-20T00:24:42;12.52;;;2.90;;
54428;SDS011;40337;52.978;6.310;2023-12-20T00:27:08;7.55;;;2.50;;
54428;SDS011;40337;52.978;6.310;2023-12-20T00:29:33;11.88;;;2.90;;
54428;SDS011;40337;52.978;6.310;2023-12-20T00:31:59;11.68;;;2.80;;
54428;SDS011;40337;52.978;6.310;2023-12-20T00:34:25;10.30;;;2.80;;
54428;SDS011;40337;52.978;6.310;2023-12-20T00:36:50;13.07;;;3.05;;
54428;SDS011;40337;52.978;6.310;2023-12-20T00:39:16;12.32;;;2.63;;
54428;SDS011;40337;52.978;6.310;2023-12-20T00:41:42;14.40;;;3.10;;
54428;SDS011;40337;52.978;6.310;2023-12-20T00:44:07;12.13;;;3.30;;
54428;SDS011;40337;52.978;6.310;2023-12-20T00:46:33;16.20;;;3.17;;
54428;SDS011;40337;52.978;6.310;2023-12-20T00:48:59;11.00;;;3.30;;
54428;SDS011;40337;52.978;6.310;2023-12-20T00:51:24;14.73;;;3.10;;
54428;SDS011;40337;52.978;6.310;2023-12-20T00:53:50;17.15;;;3.33;;
54428;SDS011;40337;52.978;6.310;2023-12-20T00:56:19;14.48;;;3.67;;
54428;SDS011;40337;52.978;6.310;2023-12-20T00:58:45;13.45;;;3.38;;
54428;SDS011;40337;52.978;6.310;2023-12-20T01:01:11;17.98;;;3.75;;
54428;SDS011;40337;52.978;6.310;2023-12-20T01:03:38;11.32;;;3.20;;
54428;SDS011;40337;52.978;6.310;2023-12-20T01:06:03;14.60;;;3.90;;
54428;SDS011;40337;52.978;6.310;2023-12-20T01:08:30;14.15;;;3.67;;
54428;SDS011;40337;52.978;6.310;2023-12-20T01:10:56;13.00;;;3.17;;
54428;SDS011;40337;52.978;6.310;2023-12-20T01:13:21;13.27;;;3.67;;
54428;SDS011;40337;52.978;6.310;2023-12-20T01:15:47;15.73;;;3.45;;
54428;SDS011;40337;52.978;6.310;2023-12-20T01:18:16;14.13;;;3.15;;
54428;SDS011;40337;52.978;6.310;2023-12-20T01:20:41;16.25;;;3.47;;
54428;SDS011;40337;52.978;6.310;2023-12-20T01:23:07;14.50;;;3.50;;
54428;SDS011;40337;52.978;6.310;2023-12-20T01:25:33;12.73;;;3.50;;
54428;SDS011;40337;52.978;6.310;2023-12-20T01:27:59;15.80;;;3.65;;
54428;SDS011;40337;52.978;6.310;2023-12-20T01:30:24;12.32;;;3.00;;
54428;SDS011;40337;52.978;6.310;2023-12-20T01:32:50;17.60;;;3.70;;
54428;SDS011;40337;52.978;6.310;2023-12-20T01:35:15;15.88;;;3.75;;
54428;SDS011;40337;52.978;6.310;2023-12-20T01:37:41;17.65;;;3.55;;
54428;SDS011;40337;52.978;6.310;2023-12-20T01:40:07;14.63;;;3.47;;
54428;SDS011;40337;52.978;6.310;2023-12-20T01:42:33;16.45;;;3.70;;
54428;SDS011;40337;52.978;6.310;2023-12-20T01:44:58;16.35;;;3.75;;
54428;SDS011;40337;52.978;6.310;2023-12-20T01:47:24;18.35;;;3.60;;
54428;SDS011;40337;52.978;6.310;2023-12-20T01:49:52;16.70;;;4.03;;
54428;SDS011;40337;52.978;6.310;2023-12-20T01:52:18;18.25;;;4.13;;
54428;SDS011;40337;52.978;6.310;2023-12-20T01:54:45;18.08;;;4.40;;
54428;SDS011;40337;52.978;6.310;2023-12-20T01:57:12;14.32;;;3.88;;
54428;SDS011;40337;52.978;6.310;2023-12-20T01:59:39;15.38;;;3.67;;
54428;SDS011;40337;52.978;6.310;2023-12-20T02:02:05;16.73;;;3.85;;
54428;SDS011;40337;52.978;6.310;2023-12-20T02:04:32;13.77;;;3.75;;
54428;SDS011;40337;52.978;6.310;2023-12-20T02:06:58;17.15;;;3.92;;
54428;SDS011;40337;52.978;6.310;2023-12-20T02:09:24;16.27;;;4.10;;
54428;SDS011;40337;52.978;6.310;2023-12-20T02:11:50;18.13;;;3.63;;
54428;SDS011;40337;52.978;6.310;2023-12-20T02:14:16;24.40;;;4.70;;
54428;SDS011;40337;52.978;6.310;2023-12-20T02:16:42;17.25;;;3.95;;
54428;SDS011;40337;52.978;6.310;2023-12-20T02:19:13;16.98;;;3.75;;
54428;SDS011;40337;52.978;6.310;2023-12-20T02:21:40;20.60;;;4.22;;
54428;SDS011;40337;52.978;6.310;2023-12-20T02:24:06;15.25;;;4.07;;
54428;SDS011;40337;52.978;6.310;2023-12-20T02:26:32;15.82;;;4.10;;
54428;SDS011;40337;52.978;6.310;2023-12-20T02:28:59;13.02;;;3.75;;
54428;SDS011;40337;52.978;6.310;2023-12-20T02:31:25;17.65;;;4.28;;
54428;SDS011;40337;52.978;6.310;2023-12-20T02:33:50;22.70;;;4.63;;
54428;SDS011;40337;52.978;6.310;2023-12-20T02:36:16;20.17;;;4.60;;
54428;SDS011;40337;52.978;6.310;2023-12-20T02:38:41;21.33;;;4.15;;
54428;SDS011;40337;52.978;6.310;2023-12-20T02:41:07;12.98;;;3.67;;
54428;SDS011;40337;52.978;6.310;2023-12-20T02:43:33;15.93;;;4.22;;
54428;SDS011;40337;52.978;6.310;2023-12-20T02:45:58;17.65;;;5.00;;
54428;SDS011;40337;52.978;6.310;2023-12-20T02:48:24;21.27;;;4.65;;
54428;SDS011;40337;52.978;6.310;2023-12-20T02:50:49;17.45;;;4.10;;
54428;SDS011;40337;52.978;6.310;2023-12-20T02:53:16;22.17;;;4.80;;
54428;SDS011;40337;52.978;6.310;2023-12-20T02:55:41;18.92;;;4.78;;
54428;SDS011;40337;52.978;6.310;2023-12-20T02:58:07;19.63;;;4.47;;
54428;SDS011;40337;52.978;6.310;2023-12-20T03:00:33;21.13;;;4.65;;
54428;SDS011;40337;52.978;6.310;2023-12-20T03:02:59;18.10;;;4.55;;
54428;SDS011;40337;52.978;6.310;2023-12-20T03:05:25;17.52;;;4.15;;
54428;SDS011;40337;52.978;6.310;2023-12-20T03:07:50;20.88;;;5.18;;
54428;SDS011;40337;52.978;6.310;2023-12-20T03:10:17;20.25;;;5.07;;
54428;SDS011;40337;52.978;6.310;2023-12-20T03:12:43;20.08;;;4.38;;
54428;SDS011;40337;52.978;6.310;2023-12-20T03:15:09;23.88;;;5.38;;
54428;SDS011;40337;52.978;6.310;2023-12-20T03:17:35;21.50;;;4.80;;
54428;SDS011;40337;52.978;6.310;2023-12-20T03:20:01;22.70;;;5.50;;
54428;SDS011;40337;52.978;6.310;2023-12-20T03:22:27;18.02;;;5.32;;
54428;SDS011;40337;52.978;6.310;2023-12-20T03:24:52;19.27;;;4.60;;
54428;SDS011;40337;52.978;6.310;2023-12-20T03:27:18;21.95;;;4.78;;
54428;SDS011;40337;52.978;6.310;2023-12-20T03:29:44;19.65;;;4.35;;
54428;SDS011;40337;52.978;6.310;2023-12-20T03:32:09;24.02;;;5.10;;
54428;SDS011;40337;52.978;6.310;2023-12-20T03:34:35;20.10;;;4.60;;
54428;SDS011;40337;52.978;6.310;2023-12-20T03:37:01;20.00;;;4.97;;
54428;SDS011;40337;52.978;6.310;2023-12-20T03:39:26;21.27;;;5.22;;
54428;SDS011;40337;52.978;6.310;2023-12-20T03:41:52;20.65;;;5.43;;
54428;SDS011;40337;52.978;6.310;2023-12-20T03:44:17;19.30;;;5.15;;
54428;SDS011;40337;52.978;6.310;2023-12-20T03:46:43;18.15;;;5.07;;
54428;SDS011;40337;52.978;6.310;2023-12-20T03:49:10;20.67;;;4.55;;
54428;SDS011;40337;52.978;6.310;2023-12-20T03:51:36;21.58;;;4.93;;
54428;SDS011;40337;52.978;6.310;2023-12-20T03:54:02;18.70;;;4.95;;
54428;SDS011;40337;52.978;6.310;2023-12-20T03:56:28;19.33;;;5.00;;
54428;SDS011;40337;52.978;6.310;2023-12-20T03:58:53;22.25;;;5.07;;
54428;SDS011;40337;52.978;6.310;2023-12-20T04:01:19;21.45;;;4.45;;
54428;SDS011;40337;52.978;6.310;2023-12-20T04:03:45;19.98;;;4.13;;
54428;SDS011;40337;52.978;6.310;2023-12-20T04:06:15;18.80;;;5.43;;
54428;SDS011;40337;52.978;6.310;2023-12-20T04:08:42;18.30;;;4.65;;
54428;SDS011;40337;52.978;6.310;2023-12-20T04:11:07;21.02;;;4.80;;
54428;SDS011;40337;52.978;6.310;2023-12-20T04:13:33;21.48;;;5.70;;
54428;SDS011;40337;52.978;6.310;2023-12-20T04:15:59;23.15;;;4.80;;
54428;SDS011;40337;52.978;6.310;2023-12-20T04:18:24;21.42;;;4.72;;
54428;SDS011;40337;52.978;6.310;2023-12-20T04:20:50;17.85;;;4.60;;
54428;SDS011;40337;52.978;6.310;2023-12-20T04:23:16;20.42;;;5.32;;
54428;SDS011;40337;52.978;6.310;2023-12-20T04:25:42;18.25;;;4.47;;
54428;SDS011;40337;52.978;6.310;2023-12-20T04:28:08;22.10;;;5.78;;
54428;SDS011;40337;52.978;6.310;2023-12-20T04:30:33;20.35;;;4.80;;
54428;SDS011;40337;52.978;6.310;2023-12-20T04:33:00;19.90;;;4.78;;
54428;SDS011;40337;52.978;6.310;2023-12-20T04:35:25;17.27;;;4.88;;
54428;SDS011;40337;52.978;6.310;2023-12-20T04:37:51;18.00;;;5.10;;
54428;SDS011;40337;52.978;6.310;2023-12-20T04:40:17;22.52;;;5.30;;
54428;SDS011;40337;52.978;6.310;2023-12-20T04:42:42;22.42;;;4.47;;
54428;SDS011;40337;52.978;6.310;2023-12-20T04:45:08;19.60;;;4.68;;
54428;SDS011;40337;52.978;6.310;2023-12-20T04:47:34;16.05;;;4.20;;
54428;SDS011;40337;52.978;6.310;2023-12-20T04:50:00;19.77;;;4.57;;
54428;SDS011;40337;52.978;6.310;2023-12-20T04:52:25;20.15;;;4.57;;
54428;SDS011;40337;52.978;6.310;2023-12-20T04:54:51;24.30;;;5.13;;
54428;SDS011;40337;52.978;6.310;2023-12-20T04:57:17;18.10;;;4.53;;
54428;SDS011;40337;52.978;6.310;2023-12-20T04:59:42;21.58;;;4.63;;
54428;SDS011;40337;52.978;6.310;2023-12-20T05:02:08;23.40;;;5.40;;
54428;SDS011;40337;52.978;6.310;2023-12-20T05:04:34;21.92;;;5.00;;
54428;SDS011;40337;52.978;6.310;2023-12-20T05:07:00;19.90;;;4.28;;
54428;SDS011;40337;52.978;6.310;2023-12-20T05:09:25;21.92;;;4.82;;
54428;SDS011;40337;52.978;6.310;2023-12-20T05:11:51;16.92;;;4.25;;
54428;SDS011;40337;52.978;6.310;2023-12-20T05:14:17;15.85;;;4.30;;
54428;SDS011;40337;52.978;6.310;2023-12-20T05:16:42;17.15;;;4.38;;
54428;SDS011;40337;52.978;6.310;2023-12-20T05:19:08;20.83;;;5.00;;
54428;SDS011;40337;52.978;6.310;2023-12-20T05:21:34;17.90;;;4.10;;
54428;SDS011;40337;52.978;6.310;2023-12-20T05:23:59;20.42;;;4.60;;
54428;SDS011;40337;52.978;6.310;2023-12-20T05:26:25;18.70;;;4.50;;
54428;SDS011;40337;52.978;6.310;2023-12-20T05:28:51;22.35;;;4.97;;
54428;SDS011;40337;52.978;6.310;2023-12-20T05:31:17;19.70;;;5.25;;
54428;SDS011;40337;52.978;6.310;2023-12-20T05:33:43;20.30;;;4.85;;
54428;SDS011;40337;52.978;6.310;2023-12-20T05:36:08;20.30;;;4.32;;
54428;SDS011;40337;52.978;6.310;2023-12-20T05:38:36;18.77;;;4.80;;
54428;SDS011;40337;52.978;6.310;2023-12-20T05:41:02;22.58;;;4.85;;
54428;SDS011;40337;52.978;6.310;2023-12-20T05:43:28;19.33;;;4.88;;
54428;SDS011;40337;52.978;6.310;2023-12-20T05:45:54;20.88;;;5.28;;
54428;SDS011;40337;52.978;6.310;2023-12-20T05:48:20;15.70;;;4.70;;
54428;SDS011;40337;52.978;6.310;2023-12-20T05:50:45;17.88;;;4.43;;
54428;SDS011;40337;52.978;6.310;2023-12-20T05:53:11;24.55;;;5.57;;
54428;SDS011;40337;52.978;6.310;2023-12-20T05:55:36;17.15;;;4.47;;
54428;SDS011;40337;52.978;6.310;2023-12-20T05:58:02;20.77;;;5.15;;
54428;SDS011;40337;52.978;6.310;2023-12-20T06:00:28;19.70;;;4.85;;
54428;SDS011;40337;52.978;6.310;2023-12-20T06:02:53;21.00;;;4.65;;
54428;SDS011;40337;52.978;6.310;2023-12-20T06:05:19;20.27;;;5.65;;
54428;SDS011;40337;52.978;6.310;2023-12-20T06:07:45;21.98;;;5.05;;
54428;SDS011;40337;52.978;6.310;2023-12-20T06:10:13;22.88;;;5.03;;
54428;SDS011;40337;52.978;6.310;2023-12-20T06:12:39;17.63;;;4.68;;
54428;SDS011;40337;52.978;6.310;2023-12-20T06:15:04;20.77;;;4.95;;
54428;SDS011;40337;52.978;6.310;2023-12-20T06:17:31;20.00;;;4.88;;
54428;SDS011;40337;52.978;6.310;2023-12-20T06:19:57;21.30;;;5.32;;
54428;SDS011;40337;52.978;6.310;2023-12-20T06:22:23;19.85;;;6.03;;
54428;SDS011;40337;52.978;6.310;2023-12-20T06:24:48;20.92;;;4.95;;
54428;SDS011;40337;52.978;6.310;2023-12-20T06:27:14;22.80;;;5.78;;
54428;SDS011;40337;52.978;6.310;2023-12-20T06:29:39;21.25;;;5.13;;
54428;SDS011;40337;52.978;6.310;2023-12-20T06:32:06;17.73;;;4.68;;
54428;SDS011;40337;52.978;6.310;2023-12-20T06:34:31;19.73;;;4.78;;
54428;SDS011;40337;52.978;6.310;2023-12-20T06:36:57;23.05;;;4.97;;
54428;SDS011;40337;52.978;6.310;2023-12-20T06:39:23;17.77;;;4.15;;
54428;SDS011;40337;52.978;6.310;2023-12-20T06:41:48;17.02;;;4.35;;
54428;SDS011;40337;52.978;6.310;2023-12-20T06:44:14;21.95;;;5.00;;
54428;SDS011;40337;52.978;6.310;2023-12-20T06:46:40;21.80;;;5.38;;
54428;SDS011;40337;52.978;6.310;2023-12-20T06:49:05;25.65;;;6.18;;
54428;SDS011;40337;52.978;6.310;2023-12-20T06:51:31;21.92;;;4.90;;
54428;SDS011;40337;52.978;6.310;2023-12-20T06:53:57;18.42;;;4.60;;
54428;SDS011;40337;52.978;6.310;2023-12-20T06:56:24;18.23;;;4.20;;
54428;SDS011;40337;52.978;6.310;2023-12-20T06:58:50;20.70;;;4.70;;
54428;SDS011;40337;52.978;6.310;2023-12-20T07:01:16;15.38;;;4.28;;
54428;SDS011;40337;52.978;6.310;2023-12-20T07:03:42;21.20;;;5.38;;
54428;SDS011;40337;52.978;6.310;2023-12-20T07:06:08;20.55;;;5.18;;
54428;SDS011;40337;52.978;6.310;2023-12-20T07:08:33;19.42;;;4.95;;
54428;SDS011;40337;52.978;6.310;2023-12-20T07:10:59;14.82;;;4.18;;
54428;SDS011;40337;52.978;6.310;2023-12-20T07:13:25;17.50;;;5.03;;
54428;SDS011;40337;52.978;6.310;2023-12-20T07:15:50;19.83;;;4.90;;
54428;SDS011;40337;52.978;6.310;2023-12-20T07:18:16;17.42;;;4.95;;
54428;SDS011;40337;52.978;6.310;2023-12-20T07:20:42;18.00;;;4.63;;
54428;SDS011;40337;52.978;6.310;2023-12-20T07:23:08;21.70;;;4.82;;
54428;SDS011;40337;52.978;6.310;2023-12-20T07:25:33;18.73;;;4.53;;
54428;SDS011;40337;52.978;6.310;2023-12-20T07:27:59;21.38;;;4.63;;
54428;SDS011;40337;52.978;6.310;2023-12-20T07:30:25;23.30;;;5.43;;
54428;SDS011;40337;52.978;6.310;2023-12-20T07:32:51;20.80;;;4.95;;
54428;SDS011;40337;52.978;6.310;2023-12-20T07:35:17;20.98;;;5.38;;
54428;SDS011;40337;52.978;6.310;2023-12-20T07:40:12;17.20;;;4.43;;
54428;SDS011;40337;52.978;6.310;2023-12-20T07:42:38;19.23;;;4.93;;
54428;SDS011;40337;52.978;6.310;2023-12-20T07:45:04;23.20;;;5.47;;
54428;SDS011;40337;52.978;6.310;2023-12-20T07:47:30;18.02;;;4.80;;
54428;SDS011;40337;52.978;6.310;2023-12-20T07:49:55;17.08;;;4.63;;
54428;SDS011;40337;52.978;6.310;2023-12-20T07:52:21;20.98;;;5.32;;
54428;SDS011;40337;52.978;6.310;2023-12-20T07:54:47;20.42;;;5.47;;
54428;SDS011;40337;52.978;6.310;2023-12-20T07:57:13;24.23;;;4.60;;
54428;SDS011;40337;52.978;6.310;2023-12-20T07:59:39;20.27;;;4.93;;
54428;SDS011;40337;52.978;6.310;2023-12-20T08:02:04;20.08;;;4.88;;
54428;SDS011;40337;52.978;6.310;2023-12-20T08:04:31;23.33;;;5.22;;
54428;SDS011;40337;52.978;6.310;2023-12-20T08:06:57;19.58;;;4.97;;
54428;SDS011;40337;52.978;6.310;2023-12-20T08:09:23;20.98;;;5.20;;
54428;SDS011;40337;52.978;6.310;2023-12-20T08:11:49;17.92;;;5.05;;
54428;SDS011;40337;52.978;6.310;2023-12-20T08:14:15;19.75;;;5.00;;
54428;SDS011;40337;52.978;6.310;2023-12-20T08:16:41;18.65;;;4.80;;
54428;SDS011;40337;52.978;6.310;2023-12-20T08:19:06;17.73;;;4.75;;
54428;SDS011;40337;52.978;6.310;2023-12-20T08:21:35;22.10;;;4.47;;
54428;SDS011;40337;52.978;6.310;2023-12-20T08:24:01;17.42;;;4.53;;
54428;SDS011;40337;52.978;6.310;2023-12-20T08:26:26;19.58;;;4.68;;
54428;SDS011;40337;52.978;6.310;2023-12-20T08:28:52;18.00;;;5.00;;
54428;SDS011;40337;52.978;6.310;2023-12-20T08:31:18;21.10;;;4.93;;
54428;SDS011;40337;52.978;6.310;2023-12-20T08:33:44;17.52;;;4.72;;
54428;SDS011;40337;52.978;6.310;2023-12-20T08:36:11;16.05;;;4.53;;
54428;SDS011;40337;52.978;6.310;2023-12-20T08:38:37;20.13;;;4.65;;
54428;SDS011;40337;52.978;6.310;2023-12-20T08:41:02;19.05;;;4.60;;
54428;SDS011;40337;52.978;6.310;2023-12-20T08:43:30;16.73;;;4.38;;
54428;SDS011;40337;52.978;6.310;2023-12-20T08:45:59;16.88;;;4.85;;
54428;SDS011;40337;52.978;6.310;2023-12-20T08:48:25;19.17;;;4.85;;
54428;SDS011;40337;52.978;6.310;2023-12-20T08:50:50;19.02;;;4.80;;
54428;SDS011;40337;52.978;6.310;2023-12-20T08:53:17;19.42;;;4.78;;
54428;SDS011;40337;52.978;6.310;2023-12-20T08:55:44;18.27;;;4.85;;
54428;SDS011;40337;52.978;6.310;2023-12-20T08:58:09;21.42;;;5.10;;
54428;SDS011;40337;52.978;6.310;2023-12-20T09:00:35;22.70;;;4.70;;
54428;SDS011;40337;52.978;6.310;2023-12-20T09:03:01;18.83;;;4.35;;
54428;SDS011;40337;52.978;6.310;2023-12-20T09:05:27;15.20;;;3.95;;
54428;SDS011;40337;52.978;6.310;2023-12-20T09:07:53;16.20;;;4.88;;
54428;SDS011;40337;52.978;6.310;2023-12-20T09:10:19;20.00;;;4.15;;
54428;SDS011;40337;52.978;6.310;2023-12-20T09:12:50;14.45;;;4.32;;
54428;SDS011;40337;52.978;6.310;2023-12-20T09:15:21;16.58;;;4.72;;
54428;SDS011;40337;52.978;6.310;2023-12-20T09:17:47;17.90;;;4.22;;
54428;SDS011;40337;52.978;6.310;2023-12-20T09:20:13;17.25;;;4.50;;
54428;SDS011;40337;52.978;6.310;2023-12-20T09:22:39;17.23;;;4.57;;
54428;SDS011;40337;52.978;6.310;2023-12-20T09:25:05;17.60;;;4.32;;
54428;SDS011;40337;52.978;6.310;2023-12-20T09:27:31;20.67;;;4.45;;
54428;SDS011;40337;52.978;6.310;2023-12-20T09:29:56;17.25;;;4.50;;
54428;SDS011;40337;52.978;6.310;2023-12-20T09:32:22;15.02;;;4.22;;
54428;SDS011;40337;52.978;6.310;2023-12-20T09:34:47;13.90;;;4.03;;
54428;SDS011;40337;52.978;6.310;2023-12-20T09:37:13;8.88;;;2.92;;
54428;SDS011;40337;52.978;6.310;2023-12-20T09:39:39;7.78;;;2.00;;
54428;SDS011;40337;52.978;6.310;2023-12-20T09:42:05;6.75;;;1.85;;
54428;SDS011;40337;52.978;6.310;2023-12-20T09:44:32;8.13;;;1.80;;
54428;SDS011;40337;52.978;6.310;2023-12-20T09:46:59;5.07;;;1.55;;
54428;SDS011;40337;52.978;6.310;2023-12-20T09:49:30;4.95;;;1.70;;
54428;SDS011;40337;52.978;6.310;2023-12-20T09:51:57;9.15;;;2.00;;
54428;SDS011;40337;52.978;6.310;2023-12-20T09:54:24;7.78;;;1.75;;
54428;SDS011;40337;52.978;6.310;2023-12-20T09:56:51;7.20;;;1.88;;
54428;SDS011;40337;52.978;6.310;2023-12-20T09:59:17;7.07;;;2.05;;
54428;SDS011;40337;52.978;6.310;2023-12-20T10:01:43;6.63;;;1.80;;
54428;SDS011;40337;52.978;6.310;2023-12-20T10:04:09;6.90;;;1.80;;
54428;SDS011;40337;52.978;6.310;2023-12-20T10:06:41;9.98;;;2.42;;
54428;SDS011;40337;52.978;6.310;2023-12-20T10:09:08;5.70;;;1.80;;
54428;SDS011;40337;52.978;6.310;2023-12-20T10:11:38;8.30;;;1.90;;
54428;SDS011;40337;52.978;6.310;2023-12-20T10:14:04;8.00;;;1.95;;
54428;SDS011;40337;52.978;6.310;2023-12-20T10:16:31;7.03;;;2.00;;
54428;SDS011;40337;52.978;6.310;2023-12-20T10:18:58;8.73;;;2.45;;
54428;SDS011;40337;52.978;6.310;2023-12-20T10:21:25;8.25;;;2.13;;
54428;SDS011;40337;52.978;6.310;2023-12-20T10:23:55;7.45;;;1.92;;
54428;SDS011;40337;52.978;6.310;2023-12-20T10:26:25;7.43;;;1.98;;
54428;SDS011;40337;52.978;6.310;2023-12-20T10:28:53;6.72;;;2.10;;
54428;SDS011;40337;52.978;6.310;2023-12-20T10:31:26;7.97;;;2.33;;
54428;SDS011;40337;52.978;6.310;2023-12-20T10:33:53;12.43;;;2.67;;
54428;SDS011;40337;52.978;6.310;2023-12-20T10:36:18;8.48;;;1.90;;
54428;SDS011;40337;52.978;6.310;2023-12-20T10:38:44;8.40;;;2.33;;
54428;SDS011;40337;52.978;6.310;2023-12-20T10:41:11;7.88;;;2.35;;
54428;SDS011;40337;52.978;6.310;2023-12-20T10:43:39;7.75;;;2.10;;
54428;SDS011;40337;52.978;6.310;2023-12-20T10:46:05;9.05;;;2.03;;
54428;SDS011;40337;52.978;6.310;2023-12-20T10:48:31;10.85;;;2.33;;
54428;SDS011;40337;52.978;6.310;2023-12-20T10:50:58;11.43;;;2.67;;
54428;SDS011;40337;52.978;6.310;2023-12-20T10:53:24;9.40;;;2.05;;
54428;SDS011;40337;52.978;6.310;2023-12-20T10:55:50;8.85;;;2.67;;
54428;SDS011;40337;52.978;6.310;2023-12-20T10:58:17;10.80;;;2.25;;
54428;SDS011;40337;52.978;6.310;2023-12-20T11:00:46;8.57;;;2.30;;
54428;SDS011;40337;52.978;6.310;2023-12-20T11:03:15;10.02;;;2.20;;
54428;SDS011;40337;52.978;6.310;2023-12-20T11:05:45;9.20;;;2.22;;
54428;SDS011;40337;52.978;6.310;2023-12-20T11:10:54;8.77;;;2.00;;
54428;SDS011;40337;52.978;6.310;2023-12-20T11:16:33;10.00;;;2.60;;
54428;SDS011;40337;52.978;6.310;2023-12-20T11:19:04;13.50;;;2.63;;
54428;SDS011;40337;52.978;6.310;2023-12-20T11:21:30;12.48;;;2.53;;
54428;SDS011;40337;52.978;6.310;2023-12-20T11:23:56;9.05;;;2.13;;
54428;SDS011;40337;52.978;6.310;2023-12-20T11:26:22;11.55;;;2.67;;
54428;SDS011;40337;52.978;6.310;2023-12-20T11:28:53;9.70;;;2.75;;
54428;SDS011;40337;52.978;6.310;2023-12-20T11:31:19;12.15;;;2.95;;
54428;SDS011;40337;52.978;6.310;2023-12-20T11:33:45;12.30;;;2.67;;
54428;SDS011;40337;52.978;6.310;2023-12-20T11:36:14;9.57;;;2.40;;
54428;SDS011;40337;52.978;6.310;2023-12-20T11:41:45;12.18;;;2.33;;
54428;SDS011;40337;52.978;6.310;2023-12-20T11:44:11;13.25;;;2.70;;
54428;SDS011;40337;52.978;6.310;2023-12-20T11:46:37;12.40;;;2.90;;
54428;SDS011;40337;52.978;6.310;2023-12-20T11:49:03;10.75;;;2.63;;
54428;SDS011;40337;52.978;6.310;2023-12-20T11:51:29;12.23;;;2.53;;
54428;SDS011;40337;52.978;6.310;2023-12-20T11:53:54;10.30;;;2.47;;
54428;SDS011;40337;52.978;6.310;2023-12-20T11:56:20;11.63;;;3.10;;
54428;SDS011;40337;52.978;6.310;2023-12-20T11:58:45;10.77;;;2.72;;
54428;SDS011;40337;52.978;6.310;2023-12-20T12:01:11;13.65;;;3.05;;
54428;SDS011;40337;52.978;6.310;2023-12-20T12:03:37;10.93;;;2.65;;
54428;SDS011;40337;52.978;6.310;2023-12-20T12:06:02;10.27;;;2.58;;
54428;SDS011;40337;52.978;6.310;2023-12-20T12:08:29;12.25;;;2.53;;
54428;SDS011;40337;52.978;6.310;2023-12-20T12:10:55;10.10;;;2.47;;
54428;SDS011;40337;52.978;6.310;2023-12-20T12:13:21;10.60;;;2.55;;
54428;SDS011;40337;52.978;6.310;2023-12-20T12:15:47;14.35;;;2.85;;
54428;SDS011;40337;52.978;6.310;2023-12-20T12:18:15;12.30;;;2.55;;
54428;SDS011;40337;52.978;6.310;2023-12-20T12:20:42;16.08;;;3.25;;
54428;SDS011;40337;52.978;6.310;2023-12-20T12:23:07;11.57;;;2.80;;
54428;SDS011;40337;52.978;6.310;2023-12-20T12:25:36;11.43;;;3.00;;
54428;SDS011;40337;52.978;6.310;2023-12-20T12:28:02;14.10;;;3.13;;
54428;SDS011;40337;52.978;6.310;2023-12-20T12:30:28;11.38;;;2.60;;
54428;SDS011;40337;52.978;6.310;2023-12-20T12:32:55;13.60;;;2.92;;
54428;SDS011;40337;52.978;6.310;2023-12-20T12:35:21;13.02;;;3.03;;
54428;SDS011;40337;52.978;6.310;2023-12-20T12:37:47;10.23;;;2.90;;
54428;SDS011;40337;52.978;6.310;2023-12-20T12:40:14;12.32;;;2.58;;
54428;SDS011;40337;52.978;6.310;2023-12-20T12:42:41;12.90;;;2.95;;
54428;SDS011;40337;52.978;6.310;2023-12-20T12:45:08;11.10;;;2.58;;
54428;SDS011;40337;52.978;6.310;2023-12-20T12:47:34;9.07;;;2.50;;
54428;SDS011;40337;52.978;6.310;2023-12-20T12:50:00;9.93;;;2.53;;
54428;SDS011;40337;52.978;6.310;2023-12-20T12:52:26;10.15;;;2.58;;
54428;SDS011;40337;52.978;6.310;2023-12-20T12:54:52;11.70;;;2.80;;
54428;SDS011;40337;52.978;6.310;2023-12-20T12:57:18;12.55;;;3.20;;
54428;SDS011;40337;52.978;6.310;2023-12-20T12:59:45;12.95;;;2.70;;
54428;SDS011;40337;52.978;6.310;2023-12-20T13:02:11;13.00;;;2.75;;
54428;SDS011;40337;52.978;6.310;2023-12-20T13:04:38;10.25;;;2.25;;
54428;SDS011;40337;52.978;6.310;2023-12-20T13:07:04;9.40;;;2.60;;
54428;SDS011;40337;52.978;6.310;2023-12-20T13:09:30;6.57;;;2.00;;
54428;SDS011;40337;52.978;6.310;2023-12-20T13:11:56;7.65;;;1.95;;
54428;SDS011;40337;52.978;6.310;2023-12-20T13:14:22;8.05;;;2.00;;
54428;SDS011;40337;52.978;6.310;2023-12-20T13:16:48;8.65;;;2.50;;
54428;SDS011;40337;52.978;6.310;2023-12-20T13:19:13;10.93;;;2.30;;
54428;SDS011;40337;52.978;6.310;2023-12-20T13:21:39;7.75;;;1.98;;
54428;SDS011;40337;52.978;6.310;2023-12-20T13:24:05;8.57;;;2.30;;
54428;SDS011;40337;52.978;6.310;2023-12-20T13:26:31;9.63;;;2.30;;
54428;SDS011;40337;52.978;6.310;2023-12-20T13:28:58;6.65;;;1.85;;
54428;SDS011;40337;52.978;6.310;2023-12-20T13:31:23;11.45;;;2.50;;
54428;SDS011;40337;52.978;6.310;2023-12-20T13:33:49;9.20;;;2.10;;
54428;SDS011;40337;52.978;6.310;2023-12-20T13:36:17;7.07;;;2.00;;
54428;SDS011;40337;52.978;6.310;2023-12-20T13:38:43;9.75;;;1.90;;
54428;SDS011;40337;52.978;6.310;2023-12-20T13:41:08;7.88;;;1.75;;
54428;SDS011;40337;52.978;6.310;2023-12-20T13:43:34;9.52;;;2.25;;
54428;SDS011;40337;52.978;6.310;2023-12-20T13:46:02;8.52;;;1.85;;
54428;SDS011;40337;52.978;6.310;2023-12-20T13:48:28;9.18;;;2.20;;
54428;SDS011;40337;52.978;6.310;2023-12-20T13:50:54;8.85;;;2.20;;
54428;SDS011;40337;52.978;6.310;2023-12-20T13:53:20;9.15;;;2.17;;
54428;SDS011;40337;52.978;6.310;2023-12-20T13:55:45;7.55;;;2.40;;
54428;SDS011;40337;52.978;6.310;2023-12-20T13:58:11;7.65;;;2.33;;
54428;SDS011;40337;52.978;6.310;2023-12-20T14:00:37;9.88;;;2.20;;
54428;SDS011;40337;52.978;6.310;2023-12-20T14:03:03;6.57;;;2.22;;
54428;SDS011;40337;52.978;6.310;2023-12-20T14:05:31;11.20;;;2.50;;
54428;SDS011;40337;52.978;6.310;2023-12-20T14:07:58;7.95;;;2.10;;
54428;SDS011;40337;52.978;6.310;2023-12-20T14:10:24;12.68;;;2.88;;
54428;SDS011;40337;52.978;6.310;2023-12-20T14:12:53;8.35;;;2.20;;
54428;SDS011;40337;52.978;6.310;2023-12-20T14:15:19;9.40;;;2.28;;
54428;SDS011;40337;52.978;6.310;2023-12-20T14:17:45;10.20;;;2.53;;
54428;SDS011;40337;52.978;6.310;2023-12-20T14:20:11;8.27;;;2.00;;
54428;SDS011;40337;52.978;6.310;2023-12-20T14:22:38;8.52;;;2.42;;
54428;SDS011;40337;52.978;6.310;2023-12-20T14:25:10;9.57;;;2.45;;
54428;SDS011;40337;52.978;6.310;2023-12-20T14:27:37;7.07;;;2.10;;
54428;SDS011;40337;52.978;6.310;2023-12-20T14:30:03;8.02;;;2.60;;
54428;SDS011;40337;52.978;6.310;2023-12-20T14:32:29;8.40;;;2.30;;
54428;SDS011;40337;52.978;6.310;2023-12-20T14:34:54;8.02;;;2.40;;
54428;SDS011;40337;52.978;6.310;2023-12-20T14:37:20;7.82;;;2.25;;
54428;SDS011;40337;52.978;6.310;2023-12-20T14:39:45;7.93;;;2.10;;
54428;SDS011;40337;52.978;6.310;2023-12-20T14:42:11;9.70;;;2.75;;